CheckWX is a tool to help pilots better visualize weather data.  It is not intended as a substitute for an official pre-flight weather briefing.

20:42:19 UTC

KMSS METAR
Massena International-Richards Field Airport
Massena, New York, USA
Current

49 mins ago

KMSS 181953Z AUTO 30008KT 10SM SCT095 M07/M15 A3010 RMK AO2 SLP202 T10721150
Observed
Feb-18 @ 19:53 UTC
Wind
  • 300° at 8 KTS
Visibility
10 SM
Flight Rules
VFR
Cloud Levels
  • Scattered at 9,500' AGL
Temperature
-7°C / 19°F
Dewpoint
-15°C / 5°F
Humidity
53%
Altimeter
30.1" Hg
Pressure
1020.2 hPa
Previous

2 hours ago

KMSS 181853Z AUTO 00000KT 10SM BKN070 BKN090 M08/M16 A3009 RMK AO2 SLP197 T10781156
Observed
Feb-18 @ 18:53 UTC
Visibility
10 SM
Flight Rules
VFR
Cloud Levels
  • Broken at 7,000' AGL
  • Broken at 9,000' AGL
Temperature
-8°C / 18°F
Dewpoint
-16°C / 3°F
Humidity
53%
Altimeter
30.09" Hg
Pressure
1019.7 hPa
Previous

3 hours ago

KMSS 181753Z AUTO 05006KT 10SM FEW043 OVC055 M09/M15 A3008 RMK AO2 SLP194 60000 T10941150 11089 21122 51018
Observed
Feb-18 @ 17:53 UTC
Wind
  • 050° at 6 KTS
Visibility
10 SM
Flight Rules
VFR
Cloud Levels
  • Few at 4,300' AGL
  • Overcast at 5,500' AGL
Temperature
-9°C / 16°F
Dewpoint
-15°C / 5°F
Humidity
62%
Altimeter
30.08" Hg
Pressure
1019.4 hPa